sensor_id;sensor_type;location;lat;lon;timestamp;P1;durP1;ratioP1;P2;durP2;ratioP2
23252;SDS011;11795;47.054;15.408;2023-02-01T00:00:00;13.9;;;8.2;;
23252;SDS011;11795;47.054;15.408;2023-02-01T00:02:00;12.3;;;7.6;;
23252;SDS011;11795;47.054;15.408;2023-02-01T00:04:00;12.3;;;7.6;;
23252;SDS011;11795;47.054;15.408;2023-02-01T00:06:00;12.3;;;7.6;;
23252;SDS011;11795;47.054;15.408;2023-02-01T00:08:00;14.1;;;7.8;;
23252;SDS011;11795;47.054;15.408;2023-02-01T00:10:00;14.1;;;7.8;;
23252;SDS011;11795;47.054;15.408;2023-02-01T00:12:02;11.3;;;8.0;;
23252;SDS011;11795;47.054;15.408;2023-02-01T00:14:00;11.3;;;8.0;;
23252;SDS011;11795;47.054;15.408;2023-02-01T00:16:04;11.3;;;8.0;;
23252;SDS011;11795;47.054;15.408;2023-02-01T00:18:00;11.6;;;7.5;;
23252;SDS011;11795;47.054;15.408;2023-02-01T00:20:00;11.6;;;7.5;;
23252;SDS011;11795;47.054;15.408;2023-02-01T00:22:00;13.6;;;8.6;;
23252;SDS011;11795;47.054;15.408;2023-02-01T00:24:00;13.6;;;8.6;;
23252;SDS011;11795;47.054;15.408;2023-02-01T00:26:00;13.6;;;8.6;;
23252;SDS011;11795;47.054;15.408;2023-02-01T00:28:00;13.8;;;8.7;;
23252;SDS011;11795;47.054;15.408;2023-02-01T00:30:00;13.8;;;8.7;;
23252;SDS011;11795;47.054;15.408;2023-02-01T00:32:00;12.7;;;8.4;;
23252;SDS011;11795;47.054;15.408;2023-02-01T00:34:00;12.7;;;8.4;;
23252;SDS011;11795;47.054;15.408;2023-02-01T00:36:01;12.7;;;8.4;;
23252;SDS011;11795;47.054;15.408;2023-02-01T00:38:00;15.2;;;8.7;;
23252;SDS011;11795;47.054;15.408;2023-02-01T00:40:00;15.2;;;8.7;;
23252;SDS011;11795;47.054;15.408;2023-02-01T00:42:01;14.5;;;7.7;;
23252;SDS011;11795;47.054;15.408;2023-02-01T00:44:01;14.5;;;7.7;;
23252;SDS011;11795;47.054;15.408;2023-02-01T00:46:00;14.5;;;7.7;;
23252;SDS011;11795;47.054;15.408;2023-02-01T00:48:00;12.0;;;7.9;;
23252;SDS011;11795;47.054;15.408;2023-02-01T00:50:00;12.0;;;7.9;;
23252;SDS011;11795;47.054;15.408;2023-02-01T00:52:00;18.2;;;10.9;;
23252;SDS011;11795;47.054;15.408;2023-02-01T00:54:00;18.2;;;10.9;;
23252;SDS011;11795;47.054;15.408;2023-02-01T00:56:00;18.2;;;10.9;;
23252;SDS011;11795;47.054;15.408;2023-02-01T00:58:00;14.1;;;8.0;;
23252;SDS011;11795;47.054;15.408;2023-02-01T01:00:00;14.1;;;8.0;;
23252;SDS011;11795;47.054;15.408;2023-02-01T01:02:00;14.4;;;7.8;;
23252;SDS011;11795;47.054;15.408;2023-02-01T01:04:00;14.4;;;7.8;;
23252;SDS011;11795;47.054;15.408;2023-02-01T01:06:01;14.4;;;7.8;;
23252;SDS011;11795;47.054;15.408;2023-02-01T01:08:00;21.2;;;12.9;;
23252;SDS011;11795;47.054;15.408;2023-02-01T01:10:00;21.2;;;12.9;;
23252;SDS011;11795;47.054;15.408;2023-02-01T01:12:02;15.9;;;9.8;;
23252;SDS011;11795;47.054;15.408;2023-02-01T01:14:00;15.9;;;9.8;;
23252;SDS011;11795;47.054;15.408;2023-02-01T01:16:03;15.9;;;9.8;;
23252;SDS011;11795;47.054;15.408;2023-02-01T01:18:00;16.0;;;8.8;;
23252;SDS011;11795;47.054;15.408;2023-02-01T01:20:00;16.0;;;8.8;;
23252;SDS011;11795;47.054;15.408;2023-02-01T01:22:00;13.8;;;8.3;;
23252;SDS011;11795;47.054;15.408;2023-02-01T01:24:00;13.8;;;8.3;;
23252;SDS011;11795;47.054;15.408;2023-02-01T01:26:00;13.8;;;8.3;;
23252;SDS011;11795;47.054;15.408;2023-02-01T01:28:00;12.8;;;7.8;;
23252;SDS011;11795;47.054;15.408;2023-02-01T01:30:00;12.8;;;7.8;;
23252;SDS011;11795;47.054;15.408;2023-02-01T01:32:00;10.7;;;7.2;;
23252;SDS011;11795;47.054;15.408;2023-02-01T01:34:00;10.7;;;7.2;;
23252;SDS011;11795;47.054;15.408;2023-02-01T01:36:00;10.7;;;7.2;;
23252;SDS011;11795;47.054;15.408;2023-02-01T01:38:00;13.1;;;7.8;;
23252;SDS011;11795;47.054;15.408;2023-02-01T01:40:00;13.1;;;7.8;;
23252;SDS011;11795;47.054;15.408;2023-02-01T01:42:00;13.6;;;8.0;;
23252;SDS011;11795;47.054;15.408;2023-02-01T01:44:00;13.6;;;8.0;;
23252;SDS011;11795;47.054;15.408;2023-02-01T01:46:00;13.6;;;8.0;;
23252;SDS011;11795;47.054;15.408;2023-02-01T01:48:01;10.8;;;7.8;;
23252;SDS011;11795;47.054;15.408;2023-02-01T01:50:00;10.8;;;7.8;;
23252;SDS011;11795;47.054;15.408;2023-02-01T01:52:00;10.7;;;6.8;;
23252;SDS011;11795;47.054;15.408;2023-02-01T01:54:01;10.7;;;6.8;;
23252;SDS011;11795;47.054;15.408;2023-02-01T01:56:00;10.7;;;6.8;;
23252;SDS011;11795;47.054;15.408;2023-02-01T01:58:02;13.1;;;7.6;;
23252;SDS011;11795;47.054;15.408;2023-02-01T02:00:01;13.1;;;7.6;;
23252;SDS011;11795;47.054;15.408;2023-02-01T02:02:00;13.4;;;7.5;;
23252;SDS011;11795;47.054;15.408;2023-02-01T02:04:00;13.4;;;7.5;;
23252;SDS011;11795;47.054;15.408;2023-02-01T02:06:00;13.4;;;7.5;;
23252;SDS011;11795;47.054;15.408;2023-02-01T02:08:00;11.9;;;7.6;;
23252;SDS011;11795;47.054;15.408;2023-02-01T02:10:00;11.9;;;7.6;;
23252;SDS011;11795;47.054;15.408;2023-02-01T02:12:00;15.0;;;8.3;;
23252;SDS011;11795;47.054;15.408;2023-02-01T02:14:00;15.0;;;8.3;;
23252;SDS011;11795;47.054;15.408;2023-02-01T02:18:00;12.8;;;7.7;;
23252;SDS011;11795;47.054;15.408;2023-02-01T02:22:05;12.4;;;7.6;;
23252;SDS011;11795;47.054;15.408;2023-02-01T02:24:09;12.4;;;7.6;;
23252;SDS011;11795;47.054;15.408;2023-02-01T02:26:05;12.4;;;7.6;;
23252;SDS011;11795;47.054;15.408;2023-02-01T02:28:01;12.1;;;7.6;;
23252;SDS011;11795;47.054;15.408;2023-02-01T02:30:02;12.1;;;7.6;;
23252;SDS011;11795;47.054;15.408;2023-02-01T02:32:05;11.9;;;7.6;;
23252;SDS011;11795;47.054;15.408;2023-02-01T02:34:03;11.9;;;7.6;;
23252;SDS011;11795;47.054;15.408;2023-02-01T02:36:01;11.9;;;7.6;;
23252;SDS011;11795;47.054;15.408;2023-02-01T02:38:02;12.5;;;7.8;;
23252;SDS011;11795;47.054;15.408;2023-02-01T02:40:02;12.5;;;7.8;;
23252;SDS011;11795;47.054;15.408;2023-02-01T02:42:11;12.2;;;7.9;;
23252;SDS011;11795;47.054;15.408;2023-02-01T02:44:11;12.2;;;7.9;;
23252;SDS011;11795;47.054;15.408;2023-02-01T02:46:14;12.2;;;7.9;;
23252;SDS011;11795;47.054;15.408;2023-02-01T02:48:02;12.5;;;8.0;;
23252;SDS011;11795;47.054;15.408;2023-02-01T02:50:12;12.5;;;8.0;;
23252;SDS011;11795;47.054;15.408;2023-02-01T02:52:11;12.9;;;7.2;;
23252;SDS011;11795;47.054;15.408;2023-02-01T02:54:10;12.9;;;7.2;;
23252;SDS011;11795;47.054;15.408;2023-02-01T02:56:10;12.9;;;7.2;;
23252;SDS011;11795;47.054;15.408;2023-02-01T02:58:10;15.6;;;8.2;;
23252;SDS011;11795;47.054;15.408;2023-02-01T03:00:11;15.6;;;8.2;;
23252;SDS011;11795;47.054;15.408;2023-02-01T03:02:10;16.1;;;8.3;;
23252;SDS011;11795;47.054;15.408;2023-02-01T03:04:08;16.1;;;8.3;;
23252;SDS011;11795;47.054;15.408;2023-02-01T03:06:00;16.1;;;8.3;;
23252;SDS011;11795;47.054;15.408;2023-02-01T03:08:02;12.9;;;7.4;;
23252;SDS011;11795;47.054;15.408;2023-02-01T03:10:05;12.9;;;7.4;;
23252;SDS011;11795;47.054;15.408;2023-02-01T03:12:12;12.3;;;7.5;;
23252;SDS011;11795;47.054;15.408;2023-02-01T03:14:00;12.3;;;7.5;;
23252;SDS011;11795;47.054;15.408;2023-02-01T03:16:01;12.3;;;7.5;;
23252;SDS011;11795;47.054;15.408;2023-02-01T03:18:00;13.9;;;7.9;;
23252;SDS011;11795;47.054;15.408;2023-02-01T03:20:00;13.9;;;7.9;;
23252;SDS011;11795;47.054;15.408;2023-02-01T03:22:01;13.7;;;7.3;;
23252;SDS011;11795;47.054;15.408;2023-02-01T03:24:01;13.7;;;7.3;;
23252;SDS011;11795;47.054;15.408;2023-02-01T03:26:00;13.7;;;7.3;;
23252;SDS011;11795;47.054;15.408;2023-02-01T03:28:00;10.1;;;6.6;;
23252;SDS011;11795;47.054;15.408;2023-02-01T03:30:02;10.1;;;6.6;;
23252;SDS011;11795;47.054;15.408;2023-02-01T03:32:00;10.7;;;7.0;;
23252;SDS011;11795;47.054;15.408;2023-02-01T03:34:00;10.7;;;7.0;;
23252;SDS011;11795;47.054;15.408;2023-02-01T03:36:03;10.7;;;7.0;;
23252;SDS011;11795;47.054;15.408;2023-02-01T03:38:01;10.4;;;6.3;;
23252;SDS011;11795;47.054;15.408;2023-02-01T03:40:01;10.4;;;6.3;;
23252;SDS011;11795;47.054;15.408;2023-02-01T03:42:01;11.4;;;6.4;;
23252;SDS011;11795;47.054;15.408;2023-02-01T03:44:01;11.4;;;6.4;;
23252;SDS011;11795;47.054;15.408;2023-02-01T03:46:01;11.4;;;6.4;;
23252;SDS011;11795;47.054;15.408;2023-02-01T03:48:00;9.5;;;6.0;;
23252;SDS011;11795;47.054;15.408;2023-02-01T03:50:01;9.5;;;6.0;;
23252;SDS011;11795;47.054;15.408;2023-02-01T03:52:00;8.9;;;5.4;;
23252;SDS011;11795;47.054;15.408;2023-02-01T03:54:00;8.9;;;5.4;;
23252;SDS011;11795;47.054;15.408;2023-02-01T03:56:00;8.9;;;5.4;;
23252;SDS011;11795;47.054;15.408;2023-02-01T03:58:01;10.2;;;5.5;;
23252;SDS011;11795;47.054;15.408;2023-02-01T04:00:03;10.2;;;5.5;;
23252;SDS011;11795;47.054;15.408;2023-02-01T04:02:00;9.7;;;5.8;;
23252;SDS011;11795;47.054;15.408;2023-02-01T04:04:00;9.7;;;5.8;;
23252;SDS011;11795;47.054;15.408;2023-02-01T04:06:00;9.7;;;5.8;;
23252;SDS011;11795;47.054;15.408;2023-02-01T04:08:00;9.8;;;5.3;;
23252;SDS011;11795;47.054;15.408;2023-02-01T04:10:00;9.8;;;5.3;;
23252;SDS011;11795;47.054;15.408;2023-02-01T04:12:00;9.5;;;5.9;;
23252;SDS011;11795;47.054;15.408;2023-02-01T04:14:04;9.5;;;5.9;;
23252;SDS011;11795;47.054;15.408;2023-02-01T04:16:00;9.5;;;5.9;;
23252;SDS011;11795;47.054;15.408;2023-02-01T04:18:00;10.7;;;6.1;;
23252;SDS011;11795;47.054;15.408;2023-02-01T04:20:00;10.7;;;6.1;;
23252;SDS011;11795;47.054;15.408;2023-02-01T04:22:00;9.5;;;5.9;;
23252;SDS011;11795;47.054;15.408;2023-02-01T04:24:00;9.5;;;5.9;;
23252;SDS011;11795;47.054;15.408;2023-02-01T04:26:00;9.5;;;5.9;;
23252;SDS011;11795;47.054;15.408;2023-02-01T04:28:00;11.7;;;6.3;;
23252;SDS011;11795;47.054;15.408;2023-02-01T04:30:00;11.7;;;6.3;;
23252;SDS011;11795;47.054;15.408;2023-02-01T04:32:00;10.9;;;6.5;;
23252;SDS011;11795;47.054;15.408;2023-02-01T04:34:00;10.9;;;6.5;;
23252;SDS011;11795;47.054;15.408;2023-02-01T04:36:00;10.9;;;6.5;;
23252;SDS011;11795;47.054;15.408;2023-02-01T04:38:00;14.0;;;6.8;;
23252;SDS011;11795;47.054;15.408;2023-02-01T04:40:00;14.0;;;6.8;;
23252;SDS011;11795;47.054;15.408;2023-02-01T04:42:00;12.4;;;7.0;;
23252;SDS011;11795;47.054;15.408;2023-02-01T04:44:00;12.4;;;7.0;;
23252;SDS011;11795;47.054;15.408;2023-02-01T04:46:00;12.4;;;7.0;;
23252;SDS011;11795;47.054;15.408;2023-02-01T04:48:00;12.0;;;6.9;;
23252;SDS011;11795;47.054;15.408;2023-02-01T04:50:00;12.0;;;6.9;;
23252;SDS011;11795;47.054;15.408;2023-02-01T04:52:00;11.1;;;6.3;;
23252;SDS011;11795;47.054;15.408;2023-02-01T04:54:00;11.1;;;6.3;;
23252;SDS011;11795;47.054;15.408;2023-02-01T04:56:00;11.1;;;6.3;;
23252;SDS011;11795;47.054;15.408;2023-02-01T04:58:00;8.9;;;6.1;;
23252;SDS011;11795;47.054;15.408;2023-02-01T05:00:00;8.9;;;6.1;;
23252;SDS011;11795;47.054;15.408;2023-02-01T05:02:00;9.8;;;6.2;;
23252;SDS011;11795;47.054;15.408;2023-02-01T05:04:00;9.8;;;6.2;;
23252;SDS011;11795;47.054;15.408;2023-02-01T05:06:00;9.8;;;6.2;;
23252;SDS011;11795;47.054;15.408;2023-02-01T05:08:00;13.1;;;6.9;;
23252;SDS011;11795;47.054;15.408;2023-02-01T05:10:00;13.1;;;6.9;;
23252;SDS011;11795;47.054;15.408;2023-02-01T05:12:10;11.4;;;7.0;;
23252;SDS011;11795;47.054;15.408;2023-02-01T05:14:00;11.4;;;7.0;;
23252;SDS011;11795;47.054;15.408;2023-02-01T05:16:00;11.4;;;7.0;;
23252;SDS011;11795;47.054;15.408;2023-02-01T05:18:00;13.0;;;7.2;;
23252;SDS011;11795;47.054;15.408;2023-02-01T05:20:00;13.0;;;7.2;;
23252;SDS011;11795;47.054;15.408;2023-02-01T05:22:01;12.3;;;6.5;;
23252;SDS011;11795;47.054;15.408;2023-02-01T05:24:10;12.3;;;6.5;;
23252;SDS011;11795;47.054;15.408;2023-02-01T05:26:00;12.3;;;6.5;;
23252;SDS011;11795;47.054;15.408;2023-02-01T05:28:00;11.3;;;6.7;;
23252;SDS011;11795;47.054;15.408;2023-02-01T05:30:00;11.3;;;6.7;;
23252;SDS011;11795;47.054;15.408;2023-02-01T05:32:00;9.8;;;6.1;;
23252;SDS011;11795;47.054;15.408;2023-02-01T05:34:00;9.8;;;6.1;;
23252;SDS011;11795;47.054;15.408;2023-02-01T05:36:00;9.8;;;6.1;;
23252;SDS011;11795;47.054;15.408;2023-02-01T05:38:00;11.4;;;7.3;;
23252;SDS011;11795;47.054;15.408;2023-02-01T05:40:00;11.4;;;7.3;;
23252;SDS011;11795;47.054;15.408;2023-02-01T05:42:00;10.4;;;6.8;;
23252;SDS011;11795;47.054;15.408;2023-02-01T05:44:00;10.4;;;6.8;;
23252;SDS011;11795;47.054;15.408;2023-02-01T05:46:00;10.4;;;6.8;;
23252;SDS011;11795;47.054;15.408;2023-02-01T05:48:00;10.5;;;6.8;;
23252;SDS011;11795;47.054;15.408;2023-02-01T05:50:00;10.5;;;6.8;;
23252;SDS011;11795;47.054;15.408;2023-02-01T05:52:00;10.8;;;6.5;;
23252;SDS011;11795;47.054;15.408;2023-02-01T05:54:00;10.8;;;6.5;;
23252;SDS011;11795;47.054;15.408;2023-02-01T05:56:00;10.8;;;6.5;;
23252;SDS011;11795;47.054;15.408;2023-02-01T05:58:00;8.9;;;6.3;;
23252;SDS011;11795;47.054;15.408;2023-02-01T06:00:00;8.9;;;6.3;;
23252;SDS011;11795;47.054;15.408;2023-02-01T06:02:00;11.3;;;6.4;;
23252;SDS011;11795;47.054;15.408;2023-02-01T06:04:00;11.3;;;6.4;;
23252;SDS011;11795;47.054;15.408;2023-02-01T06:06:01;11.3;;;6.4;;
23252;SDS011;11795;47.054;15.408;2023-02-01T06:08:00;12.0;;;7.4;;
23252;SDS011;11795;47.054;15.408;2023-02-01T06:10:00;12.0;;;7.4;;
23252;SDS011;11795;47.054;15.408;2023-02-01T06:12:01;10.6;;;6.3;;
23252;SDS011;11795;47.054;15.408;2023-02-01T06:14:00;10.6;;;6.3;;
23252;SDS011;11795;47.054;15.408;2023-02-01T06:16:00;10.6;;;6.3;;
23252;SDS011;11795;47.054;15.408;2023-02-01T06:18:00;9.3;;;6.6;;
23252;SDS011;11795;47.054;15.408;2023-02-01T06:20:00;9.3;;;6.6;;
23252;SDS011;11795;47.054;15.408;2023-02-01T06:22:00;10.3;;;6.5;;
23252;SDS011;11795;47.054;15.408;2023-02-01T06:24:00;10.3;;;6.5;;
23252;SDS011;11795;47.054;15.408;2023-02-01T06:26:01;10.3;;;6.5;;
23252;SDS011;11795;47.054;15.408;2023-02-01T06:28:00;8.9;;;6.3;;
23252;SDS011;11795;47.054;15.408;2023-02-01T06:30:00;8.9;;;6.3;;
23252;SDS011;11795;47.054;15.408;2023-02-01T06:32:00;10.1;;;6.5;;
23252;SDS011;11795;47.054;15.408;2023-02-01T06:34:00;10.1;;;6.5;;
23252;SDS011;11795;47.054;15.408;2023-02-01T06:36:00;10.1;;;6.5;;
23252;SDS011;11795;47.054;15.408;2023-02-01T06:38:00;9.8;;;6.6;;
23252;SDS011;11795;47.054;15.408;2023-02-01T06:40:00;9.8;;;6.6;;
23252;SDS011;11795;47.054;15.408;2023-02-01T06:42:00;13.5;;;7.9;;
23252;SDS011;11795;47.054;15.408;2023-02-01T06:44:00;13.5;;;7.9;;
23252;SDS011;11795;47.054;15.408;2023-02-01T06:46:00;13.5;;;7.9;;
23252;SDS011;11795;47.054;15.408;2023-02-01T06:48:00;12.0;;;7.1;;
23252;SDS011;11795;47.054;15.408;2023-02-01T06:50:00;12.0;;;7.1;;
23252;SDS011;11795;47.054;15.408;2023-02-01T06:52:00;12.9;;;7.1;;
23252;SDS011;11795;47.054;15.408;2023-02-01T06:54:00;12.9;;;7.1;;
23252;SDS011;11795;47.054;15.408;2023-02-01T06:56:01;12.9;;;7.1;;
23252;SDS011;11795;47.054;15.408;2023-02-01T06:58:02;10.7;;;7.0;;
23252;SDS011;11795;47.054;15.408;2023-02-01T07:00:00;10.7;;;7.0;;
23252;SDS011;11795;47.054;15.408;2023-02-01T07:02:00;13.4;;;9.1;;
23252;SDS011;11795;47.054;15.408;2023-02-01T07:04:00;13.4;;;9.1;;
23252;SDS011;11795;47.054;15.408;2023-02-01T07:06:00;13.4;;;9.1;;
23252;SDS011;11795;47.054;15.408;2023-02-01T07:08:00;12.5;;;8.2;;
23252;SDS011;11795;47.054;15.408;2023-02-01T07:10:00;12.5;;;8.2;;
23252;SDS011;11795;47.054;15.408;2023-02-01T07:12:00;12.5;;;7.7;;
23252;SDS011;11795;47.054;15.408;2023-02-01T07:14:00;12.5;;;7.7;;
23252;SDS011;11795;47.054;15.408;2023-02-01T07:16:00;12.5;;;7.7;;
23252;SDS011;11795;47.054;15.408;2023-02-01T07:18:00;20.5;;;13.6;;
23252;SDS011;11795;47.054;15.408;2023-02-01T07:20:01;20.5;;;13.6;;
23252;SDS011;11795;47.054;15.408;2023-02-01T07:22:00;15.9;;;10.5;;
23252;SDS011;11795;47.054;15.408;2023-02-01T07:24:00;15.9;;;10.5;;
23252;SDS011;11795;47.054;15.408;2023-02-01T07:26:01;15.9;;;10.5;;
23252;SDS011;11795;47.054;15.408;2023-02-01T07:28:00;15.3;;;10.1;;
23252;SDS011;11795;47.054;15.408;2023-02-01T07:30:02;15.3;;;10.1;;
23252;SDS011;11795;47.054;15.408;2023-02-01T07:32:01;13.2;;;8.9;;
23252;SDS011;11795;47.054;15.408;2023-02-01T07:34:00;13.2;;;8.9;;
23252;SDS011;11795;47.054;15.408;2023-02-01T07:36:00;13.2;;;8.9;;
23252;SDS011;11795;47.054;15.408;2023-02-01T07:38:00;17.7;;;12.9;;
23252;SDS011;11795;47.054;15.408;2023-02-01T07:40:00;17.7;;;12.9;;
23252;SDS011;11795;47.054;15.408;2023-02-01T07:42:00;16.6;;;11.3;;
23252;SDS011;11795;47.054;15.408;2023-02-01T07:44:00;16.6;;;11.3;;
23252;SDS011;11795;47.054;15.408;2023-02-01T07:46:00;16.6;;;11.3;;
23252;SDS011;11795;47.054;15.408;2023-02-01T07:48:00;10.4;;;6.7;;
23252;SDS011;11795;47.054;15.408;2023-02-01T07:50:00;10.4;;;6.7;;
23252;SDS011;11795;47.054;15.408;2023-02-01T07:52:00;9.4;;;6.6;;
23252;SDS011;11795;47.054;15.408;2023-02-01T07:54:00;9.4;;;6.6;;
23252;SDS011;11795;47.054;15.408;2023-02-01T07:56:00;9.4;;;6.6;;
23252;SDS011;11795;47.054;15.408;2023-02-01T07:58:00;10.3;;;5.4;;
23252;SDS011;11795;47.054;15.408;2023-02-01T08:00:10;10.3;;;5.4;;
23252;SDS011;11795;47.054;15.408;2023-02-01T08:02:00;10.7;;;6.0;;
23252;SDS011;11795;47.054;15.408;2023-02-01T08:04:01;10.7;;;6.0;;
23252;SDS011;11795;47.054;15.408;2023-02-01T08:06:00;10.7;;;6.0;;
23252;SDS011;11795;47.054;15.408;2023-02-01T08:08:00;11.3;;;7.5;;
23252;SDS011;11795;47.054;15.408;2023-02-01T08:10:00;11.3;;;7.5;;
23252;SDS011;11795;47.054;15.408;2023-02-01T08:12:01;10.7;;;6.7;;
23252;SDS011;11795;47.054;15.408;2023-02-01T08:14:00;10.7;;;6.7;;
23252;SDS011;11795;47.054;15.408;2023-02-01T08:16:01;10.7;;;6.7;;
23252;SDS011;11795;47.054;15.408;2023-02-01T08:18:02;12.2;;;7.3;;
23252;SDS011;11795;47.054;15.408;2023-02-01T08:20:00;12.2;;;7.3;;
23252;SDS011;11795;47.054;15.408;2023-02-01T08:22:02;13.0;;;8.1;;
23252;SDS011;11795;47.054;15.408;2023-02-01T08:24:00;13.0;;;8.1;;
23252;SDS011;11795;47.054;15.408;2023-02-01T08:26:04;13.0;;;8.1;;
23252;SDS011;11795;47.054;15.408;2023-02-01T08:28:00;11.9;;;7.0;;
23252;SDS011;11795;47.054;15.408;2023-02-01T08:30:00;11.9;;;7.0;;
23252;SDS011;11795;47.054;15.408;2023-02-01T08:32:00;8.8;;;6.6;;
23252;SDS011;11795;47.054;15.408;2023-02-01T08:34:01;8.8;;;6.6;;
23252;SDS011;11795;47.054;15.408;2023-02-01T08:36:00;8.8;;;6.6;;
23252;SDS011;11795;47.054;15.408;2023-02-01T08:38:00;10.1;;;6.3;;
23252;SDS011;11795;47.054;15.408;2023-02-01T08:40:00;10.1;;;6.3;;
23252;SDS011;11795;47.054;15.408;2023-02-01T08:42:10;11.0;;;6.0;;
23252;SDS011;11795;47.054;15.408;2023-02-01T08:44:00;11.0;;;6.0;;
23252;SDS011;11795;47.054;15.408;2023-02-01T08:46:00;11.0;;;6.0;;
23252;SDS011;11795;47.054;15.408;2023-02-01T08:48:00;5.5;;;3.9;;
23252;SDS011;11795;47.054;15.408;2023-02-01T08:50:00;5.5;;;3.9;;
23252;SDS011;11795;47.054;15.408;2023-02-01T08:52:00;5.5;;;3.8;;
23252;SDS011;11795;47.054;15.408;2023-02-01T08:54:00;5.5;;;3.8;;
23252;SDS011;11795;47.054;15.408;2023-02-01T08:56:00;5.5;;;3.8;;
23252;SDS011;11795;47.054;15.408;2023-02-01T08:58:00;5.4;;;3.5;;
23252;SDS011;11795;47.054;15.408;2023-02-01T09:00:00;5.4;;;3.5;;
23252;SDS011;11795;47.054;15.408;2023-02-01T09:02:00;6.1;;;3.7;;
23252;SDS011;11795;47.054;15.408;2023-02-01T09:04:00;6.1;;;3.7;;
23252;SDS011;11795;47.054;15.408;2023-02-01T09:06:00;6.1;;;3.7;;
23252;SDS011;11795;47.054;15.408;2023-02-01T09:08:00;5.4;;;3.6;;
23252;SDS011;11795;47.054;15.408;2023-02-01T09:10:01;5.4;;;3.6;;
23252;SDS011;11795;47.054;15.408;2023-02-01T09:12:00;11.6;;;5.3;;
23252;SDS011;11795;47.054;15.408;2023-02-01T09:14:00;11.6;;;5.3;;
23252;SDS011;11795;47.054;15.408;2023-02-01T09:16:00;11.6;;;5.3;;
23252;SDS011;11795;47.054;15.408;2023-02-01T09:18:00;10.4;;;5.2;;
23252;SDS011;11795;47.054;15.408;2023-02-01T09:20:00;10.4;;;5.2;;
23252;SDS011;11795;47.054;15.408;2023-02-01T09:22:00;8.9;;;4.9;;
23252;SDS011;11795;47.054;15.408;2023-02-01T09:24:00;8.9;;;4.9;;
23252;SDS011;11795;47.054;15.408;2023-02-01T09:26:00;8.9;;;4.9;;
23252;SDS011;11795;47.054;15.408;2023-02-01T09:28:00;7.7;;;4.0;;
23252;SDS011;11795;47.054;15.408;2023-02-01T09:30:00;7.7;;;4.0;;
23252;SDS011;11795;47.054;15.408;2023-02-01T09:32:00;8.8;;;4.6;;
23252;SDS011;11795;47.054;15.408;2023-02-01T09:34:00;8.8;;;4.6;;
23252;SDS011;11795;47.054;15.408;2023-02-01T09:36:01;8.8;;;4.6;;
23252;SDS011;11795;47.054;15.408;2023-02-01T09:38:00;8.5;;;4.5;;
23252;SDS011;11795;47.054;15.408;2023-02-01T09:40:00;8.5;;;4.5;;
23252;SDS011;11795;47.054;15.408;2023-02-01T09:42:04;11.0;;;4.9;;
23252;SDS011;11795;47.054;15.408;2023-02-01T09:44:02;11.0;;;4.9;;
23252;SDS011;11795;47.054;15.408;2023-02-01T09:46:02;11.0;;;4.9;;
23252;SDS011;11795;47.054;15.408;2023-02-01T09:48:01;8.7;;;4.6;;
23252;SDS011;11795;47.054;15.408;2023-02-01T09:50:00;8.7;;;4.6;;
23252;SDS011;11795;47.054;15.408;2023-02-01T09:52:00;8.4;;;4.5;;
23252;SDS011;11795;47.054;15.408;2023-02-01T09:54:01;8.4;;;4.5;;
23252;SDS011;11795;47.054;15.408;2023-02-01T09:56:02;8.4;;;4.5;;
23252;SDS011;11795;47.054;15.408;2023-02-01T09:58:00;9.0;;;4.7;;
23252;SDS011;11795;47.054;15.408;2023-02-01T10:00:00;9.0;;;4.7;;
23252;SDS011;11795;47.054;15.408;2023-02-01T10:02:00;11.4;;;5.7;;
23252;SDS011;11795;47.054;15.408;2023-02-01T10:04:01;11.4;;;5.7;;
23252;SDS011;11795;47.054;15.408;2023-02-01T10:06:05;11.4;;;5.7;;
23252;SDS011;11795;47.054;15.408;2023-02-01T10:08:00;12.1;;;5.5;;
23252;SDS011;11795;47.054;15.408;2023-02-01T10:10:01;12.1;;;5.5;;
23252;SDS011;11795;47.054;15.408;2023-02-01T10:12:07;12.4;;;7.3;;
23252;SDS011;11795;47.054;15.408;2023-02-01T10:14:01;12.4;;;7.3;;
23252;SDS011;11795;47.054;15.408;2023-02-01T10:16:03;12.4;;;7.3;;
23252;SDS011;11795;47.054;15.408;2023-02-01T10:18:03;16.4;;;8.0;;
23252;SDS011;11795;47.054;15.408;2023-02-01T10:20:03;16.4;;;8.0;;
23252;SDS011;11795;47.054;15.408;2023-02-01T10:22:00;14.0;;;8.6;;
23252;SDS011;11795;47.054;15.408;2023-02-01T10:24:05;14.0;;;8.6;;
23252;SDS011;11795;47.054;15.408;2023-02-01T10:26:01;14.0;;;8.6;;
23252;SDS011;11795;47.054;15.408;2023-02-01T10:28:00;12.0;;;7.2;;
23252;SDS011;11795;47.054;15.408;2023-02-01T10:30:04;12.0;;;7.2;;
23252;SDS011;11795;47.054;15.408;2023-02-01T10:32:00;9.9;;;4.8;;
23252;SDS011;11795;47.054;15.408;2023-02-01T10:34:01;9.9;;;4.8;;
23252;SDS011;11795;47.054;15.408;2023-02-01T10:36:01;9.9;;;4.8;;
23252;SDS011;11795;47.054;15.408;2023-02-01T10:38:00;10.2;;;5.0;;
23252;SDS011;11795;47.054;15.408;2023-02-01T10:40:01;10.2;;;5.0;;
23252;SDS011;11795;47.054;15.408;2023-02-01T10:42:00;8.4;;;4.1;;
23252;SDS011;11795;47.054;15.408;2023-02-01T10:44:00;8.4;;;4.1;;
23252;SDS011;11795;47.054;15.408;2023-02-01T10:46:00;8.4;;;4.1;;
23252;SDS011;11795;47.054;15.408;2023-02-01T10:48:00;8.3;;;4.1;;
23252;SDS011;11795;47.054;15.408;2023-02-01T10:50:02;8.3;;;4.1;;
23252;SDS011;11795;47.054;15.408;2023-02-01T10:52:02;8.8;;;4.6;;
23252;SDS011;11795;47.054;15.408;2023-02-01T10:54:01;8.8;;;4.6;;
23252;SDS011;11795;47.054;15.408;2023-02-01T10:56:04;8.8;;;4.6;;
23252;SDS011;11795;47.054;15.408;2023-02-01T10:58:00;6.2;;;3.3;;
23252;SDS011;11795;47.054;15.408;2023-02-01T11:00:03;6.2;;;3.3;;
23252;SDS011;11795;47.054;15.408;2023-02-01T11:02:01;7.1;;;3.8;;
23252;SDS011;11795;47.054;15.408;2023-02-01T11:04:00;7.1;;;3.8;;
23252;SDS011;11795;47.054;15.408;2023-02-01T11:06:01;7.1;;;3.8;;
23252;SDS011;11795;47.054;15.408;2023-02-01T11:08:00;7.9;;;3.6;;
23252;SDS011;11795;47.054;15.408;2023-02-01T11:10:02;7.9;;;3.6;;
23252;SDS011;11795;47.054;15.408;2023-02-01T11:12:00;6.9;;;3.5;;
23252;SDS011;11795;47.054;15.408;2023-02-01T11:14:01;6.9;;;3.5;;
23252;SDS011;11795;47.054;15.408;2023-02-01T11:16:00;6.9;;;3.5;;
23252;SDS011;11795;47.054;15.408;2023-02-01T11:18:14;6.2;;;3.5;;
23252;SDS011;11795;47.054;15.408;2023-02-01T11:20:01;6.2;;;3.5;;
23252;SDS011;11795;47.054;15.408;2023-02-01T11:22:00;5.3;;;2.6;;
23252;SDS011;11795;47.054;15.408;2023-02-01T11:24:00;5.3;;;2.6;;
23252;SDS011;11795;47.054;15.408;2023-02-01T11:26:01;5.3;;;2.6;;
23252;SDS011;11795;47.054;15.408;2023-02-01T11:28:00;4.9;;;2.4;;
23252;SDS011;11795;47.054;15.408;2023-02-01T11:30:00;4.9;;;2.4;;
23252;SDS011;11795;47.054;15.408;2023-02-01T11:32:00;6.0;;;3.0;;
23252;SDS011;11795;47.054;15.408;2023-02-01T11:34:05;6.0;;;3.0;;
23252;SDS011;11795;47.054;15.408;2023-02-01T11:36:00;6.0;;;3.0;;
23252;SDS011;11795;47.054;15.408;2023-02-01T11:38:00;5.9;;;3.6;;
23252;SDS011;11795;47.054;15.408;2023-02-01T11:40:01;5.9;;;3.6;;
23252;SDS011;11795;47.054;15.408;2023-02-01T11:42:02;4.6;;;3.2;;
23252;SDS011;11795;47.054;15.408;2023-02-01T11:44:01;4.6;;;3.2;;
23252;SDS011;11795;47.054;15.408;2023-02-01T11:46:00;4.6;;;3.2;;
23252;SDS011;11795;47.054;15.408;2023-02-01T11:48:00;7.1;;;2.9;;
23252;SDS011;11795;47.054;15.408;2023-02-01T11:50:00;7.1;;;2.9;;
23252;SDS011;11795;47.054;15.408;2023-02-01T11:52:03;2.3;;;1.2;;
23252;SDS011;11795;47.054;15.408;2023-02-01T11:54:05;2.3;;;1.2;;
23252;SDS011;11795;47.054;15.408;2023-02-01T11:56:03;2.3;;;1.2;;
23252;SDS011;11795;47.054;15.408;2023-02-01T11:58:03;1.3;;;0.3;;
23252;SDS011;11795;47.054;15.408;2023-02-01T12:00:03;1.3;;;0.3;;
23252;SDS011;11795;47.054;15.408;2023-02-01T12:02:06;1.3;;;0.2;;
23252;SDS011;11795;47.054;15.408;2023-02-01T12:04:05;1.3;;;0.2;;
23252;SDS011;11795;47.054;15.408;2023-02-01T12:06:04;1.3;;;0.2;;
23252;SDS011;11795;47.054;15.408;2023-02-01T12:08:05;0.3;;;0.1;;